Flugplatz Dorsten am Kanal (UL)

Hier findest Du alle Informationen zum Flugplatz Dorsten am Kanal (UL).

Informationen für Piloten zum Flugplatz Dorsten am Kanal

Hier findest Du alle relevanten Informationen, die Du als Pilot benötigst, um Dorsten am Kanal anzufliegen.

Flugplatz: Dorsten am Kanal ICAO-Code: UL Flugplatz
Frequenz Turm: 123.350 Mhz GAFOR Gebiet: 33
Frequenz Ground: 123.350 Mhz Mogas: nein
Platzrunde: S 1000 ft Landegebühr: -
Platzhöhe: Sunrise: 07:11 Uhr UTC
Pisten: 09/27 - 600 m x 30 m, GRAS Sunset: 15:29 Uhr UTC

Mitglieder, die in Dorsten am Kanal fliegen

Flugwetter am Flugplatz Dorsten am Kanal

Die METAR Information stammen aus EDDL (45.12 km entfernt).

METAR Code:
2021/11/13 09:50
EDDL 130950Z 16009KT 7000 -RADZ FEW004 BKN009 09/08 Q1011 TEMPO BKN012

Flugschulen am Flugplatz Dorsten am Kanal

Am Flugplatz Dorsten am Kanal gibt es leider keine Flugschule.

Benachbarte Flugplätze und Flugschulen

Es gibt 16 weitere Flugplätze in einem Umkreis von 50 km um den Flugplatz Dorsten am Kanal.

Jetzt anmelden

Passwort vergessen

Umfrage Archiv

Welche Navigations-App nutzt Ihr im Cockpit

SkyDemon
47.5 %
VFRnav
22 %
Ich nutze eine andere App
20.3 %
Ich nutze gar keine App
5.1 %
EasyVFR
4.5 %
ForeFlight
0.6 %
Stimmen: 177 | Diskussion (45)
Anzeige: Roland Aircraft
Statistik Alle Mitglieder

Aktuell sind 53 Besucher online.

Anzeige: VFR Sprechfunk Simulator Anzeige: Pocket FMS